Time;durP1;ratioP1;P1;durP2;ratioP2;P2;SDS_P1;SDS_P2;PMS_P1;PMS_P2;Temp;Humidity;BMP_temperature;BMP_pressure;BME280_temperature;BME280_humidity;BME280_pressure;Samples;Min_cycle;Max_cycle;Signal;HPM_P1;HPM_P2
2022/07/26 00:02:43;;;;;;;0.20;0.00;;;25.70;99.90;;;;;;25696133;23;20348;-72
2022/07/26 00:12:50;;;;;;;0.20;0.00;;;25.40;99.90;;;;;;25697061;23;20170;-72
2022/07/26 00:22:55;;;;;;;0.20;0.00;;;25.30;99.90;;;;;;25670844;23;20194;-70
2022/07/26 00:32:59;;;;;;;0.20;0.00;;;25.40;99.90;;;;;;25696195;23;20158;-72
2022/07/26 00:43:05;;;;;;;0.20;0.00;;;25.30;99.90;;;;;;25699949;23;20194;-72
2022/07/26 00:53:09;;;;;;;0.20;0.00;;;25.40;99.90;;;;;;25702263;23;20162;-72
2022/07/26 01:03:14;;;;;;;0.20;0.00;;;25.20;99.90;;;;;;25702994;23;20202;-71
2022/07/26 01:13:20;;;;;;;0.20;0.10;;;25.20;99.90;;;;;;25702771;23;20217;-73
2022/07/26 01:23:25;;;;;;;0.20;0.05;;;25.00;99.90;;;;;;25701624;23;20245;-71
2022/07/26 01:33:29;;;;;;;0.20;0.00;;;24.80;99.90;;;;;;25700986;23;20200;-71
2022/07/26 01:43:34;;;;;;;0.20;0.00;;;24.80;99.90;;;;;;25701191;23;20198;-70
2022/07/26 01:53:38;;;;;;;0.20;0.00;;;24.90;99.90;;;;;;25700531;23;20181;-72
2022/07/26 02:03:44;;;;;;;0.20;0.00;;;24.80;99.90;;;;;;25674007;23;20208;-71
2022/07/26 02:13:47;;;;;;;0.20;0.00;;;24.60;99.90;;;;;;25699968;23;20185;-70
2022/07/26 02:23:57;;;;;;;0.20;0.00;;;24.60;99.90;;;;;;25673633;23;20186;-72
2022/07/26 02:34:01;;;;;;;0.20;0.00;;;24.70;99.90;;;;;;25698922;23;20162;-71
2022/07/26 02:44:08;;;;;;;0.20;0.00;;;24.70;99.90;;;;;;25698927;23;20193;-71
2022/07/26 02:54:13;;;;;;;0.20;0.00;;;24.80;99.90;;;;;;25698539;23;20174;-72
2022/07/26 03:04:19;;;;;;;0.20;0.10;;;24.90;99.90;;;;;;25697756;23;20217;-71
2022/07/26 03:14:23;;;;;;;0.20;0.00;;;25.00;99.90;;;;;;25698028;23;20173;-71
2022/07/26 03:24:28;;;;;;;0.20;0.00;;;24.80;99.90;;;;;;25696395;23;20194;-71
2022/07/26 03:34:32;;;;;;;0.20;0.00;;;24.70;99.90;;;;;;25670642;23;20190;-71
2022/07/26 03:44:37;;;;;;;0.20;0.00;;;24.80;99.90;;;;;;25696968;23;20189;-71
2022/07/26 03:54:41;;;;;;;0.20;0.00;;;24.80;99.90;;;;;;25695671;23;20189;-71
2022/07/26 04:04:46;;;;;;;0.20;0.00;;;24.70;99.90;;;;;;25695745;23;20234;-71
2022/07/26 04:14:50;;;;;;;0.20;0.00;;;24.60;99.90;;;;;;25672556;23;20170;-72
2022/07/26 04:24:55;;;;;;;0.20;0.10;;;24.80;99.90;;;;;;25703398;23;20197;-71
2022/07/26 04:34:59;;;;;;;0.20;0.00;;;25.10;99.90;;;;;;25702886;23;20650;-72
2022/07/26 04:45:05;;;;;;;0.20;0.00;;;25.30;99.90;;;;;;25675825;23;20201;-72
2022/07/26 04:55:11;;;;;;;0.20;0.00;;;25.20;99.90;;;;;;25661754;23;20166;-72
2022/07/26 05:05:17;;;;;;;0.20;0.00;;;25.30;99.90;;;;;;25698715;23;20202;-73
2022/07/26 05:15:20;;;;;;;0.20;0.10;;;25.30;99.90;;;;;;25675688;23;20170;-72
2022/07/26 05:25:26;;;;;;;0.20;0.00;;;25.20;99.90;;;;;;25674286;23;20282;-71
2022/07/26 05:35:30;;;;;;;0.20;0.00;;;25.30;99.90;;;;;;25699280;23;20274;-71
2022/07/26 05:45:36;;;;;;;0.20;0.00;;;25.40;99.90;;;;;;25673101;23;20738;-71
2022/07/26 05:55:40;;;;;;;0.20;0.00;;;25.60;99.90;;;;;;25698584;23;20162;-72
2022/07/26 06:05:45;;;;;;;0.20;0.05;;;25.60;99.90;;;;;;25695635;23;20206;-71
2022/07/26 06:15:49;;;;;;;0.20;0.00;;;25.80;99.90;;;;;;25696890;23;20181;-72
2022/07/26 06:25:55;;;;;;;0.20;0.00;;;26.00;99.90;;;;;;25695397;23;20189;-71
2022/07/26 06:35:59;;;;;;;0.20;0.00;;;26.20;99.90;;;;;;25669590;23;20182;-71
2022/07/26 06:46:04;;;;;;;0.20;0.00;;;26.40;99.90;;;;;;25695596;23;20197;-72
2022/07/26 06:56:08;;;;;;;0.20;0.10;;;27.40;99.90;;;;;;25654048;23;20162;-71
2022/07/26 07:06:14;;;;;;;0.20;0.10;;;27.30;99.90;;;;;;25692144;23;20205;-73
2022/07/26 07:16:17;;;;;;;0.20;0.00;;;27.00;99.90;;;;;;25667128;23;20165;-75
2022/07/26 07:26:24;;;;;;;0.20;0.00;;;27.00;99.90;;;;;;25693380;23;20193;-72
2022/07/26 07:36:27;;;;;;;0.20;0.10;;;27.30;99.90;;;;;;25689979;23;20162;-71
2022/07/26 07:46:33;;;;;;;0.20;0.00;;;27.60;99.90;;;;;;25691351;23;20189;-71
2022/07/26 07:56:37;;;;;;;0.20;0.00;;;28.40;99.90;;;;;;25672326;23;20176;-69
2022/07/26 08:06:43;;;;;;;0.20;0.00;;;28.10;99.90;;;;;;25697433;23;20205;-71
2022/07/26 08:16:53;;;;;;;0.20;0.00;;;28.20;99.90;;;;;;25699524;23;20166;-70
2022/07/26 08:26:59;;;;;;;0.20;0.00;;;28.00;99.90;;;;;;25697978;23;20193;-71
2022/07/26 08:37:02;;;;;;;0.20;0.00;;;28.30;99.90;;;;;;25694864;23;20179;-69
2022/07/26 08:47:22;;;;;;;0.20;0.00;;;28.50;99.90;;;;;;25672239;23;20186;-70
2022/07/26 08:57:42;;;;;;;0.20;0.10;;;29.00;99.90;;;;;;25687802;23;20161;-70
2022/07/26 09:07:47;;;;;;;0.20;0.00;;;28.90;99.90;;;;;;25685200;23;20229;-70
2022/07/26 09:17:53;;;;;;;0.20;0.00;;;29.20;99.90;;;;;;25682975;23;20186;-69
2022/07/26 09:27:59;;;;;;;0.20;0.00;;;29.00;99.90;;;;;;25657789;23;20202;-70
2022/07/26 09:38:12;;;;;;;0.20;0.00;;;28.90;99.90;;;;;;25682630;23;20214;-70
2022/07/26 09:48:28;;;;;;;0.20;0.10;;;28.80;99.90;;;;;;25677026;23;20245;-70
2022/07/26 09:58:53;;;;;;;0.20;0.00;;;28.80;99.90;;;;;;25676728;23;20190;-70
2022/07/26 10:08:59;;;;;;;0.20;0.10;;;29.10;99.90;;;;;;25672325;23;20895;-70
2022/07/26 10:19:03;;;;;;;0.20;0.03;;;29.10;99.90;;;;;;25677971;23;20182;-70
2022/07/26 10:29:26;;;;;;;0.20;0.00;;;29.70;99.90;;;;;;25679269;23;20182;-70
2022/07/26 10:39:30;;;;;;;0.20;0.00;;;29.70;99.90;;;;;;25677662;23;20233;-70
2022/07/26 10:49:37;;;;;;;0.20;0.00;;;30.00;99.90;;;;;;25678509;23;20274;-69
2022/07/26 10:59:41;;;;;;;0.20;0.00;;;30.00;99.90;;;;;;25677885;23;20206;-69
2022/07/26 11:10:02;;;;;;;0.20;0.00;;;30.10;99.90;;;;;;25675503;23;20194;-69
2022/07/26 11:20:07;;;;;;;0.20;0.00;;;30.60;99.90;;;;;;25676803;23;20170;-71
2022/07/26 11:30:13;;;;;;;0.20;0.00;;;30.80;99.90;;;;;;25677337;23;20186;-70
2022/07/26 11:40:18;;;;;;;0.20;0.00;;;31.20;99.90;;;;;;25676544;23;20162;-69
2022/07/26 11:50:23;;;;;;;0.20;0.00;;;31.60;99.90;;;;;;25676424;23;20236;-70
2022/07/26 12:00:27;;;;;;;0.20;0.00;;;32.00;99.90;;;;;;25624690;23;20198;-70
2022/07/26 12:10:33;;;;;;;0.20;0.00;;;31.10;99.90;;;;;;25677287;23;20237;-71
2022/07/26 12:20:37;;;;;;;0.20;0.00;;;31.50;99.90;;;;;;25673233;23;20189;-70
2022/07/26 12:30:44;;;;;;;0.20;0.00;;;31.20;99.90;;;;;;25676389;23;20206;-69
2022/07/26 12:40:49;;;;;;;0.20;0.00;;;32.40;99.90;;;;;;25683313;23;20198;-70
2022/07/26 12:50:56;;;;;;;0.20;0.00;;;32.80;99.90;;;;;;25682582;23;20279;-70
2022/07/26 13:01:01;;;;;;;0.20;0.00;;;31.30;99.90;;;;;;25656688;23;20191;-70
2022/07/26 13:11:06;;;;;;;0.20;0.00;;;31.90;99.90;;;;;;25651944;23;20190;-70
2022/07/26 13:21:11;;;;;;;0.80;0.80;;;31.90;99.90;;;;;;25681656;23;20269;-70
2022/07/26 13:31:16;;;;;;;0.20;0.00;;;33.10;99.90;;;;;;25684155;23;20236;-71
2022/07/26 13:41:21;;;;;;;0.20;0.00;;;33.20;99.90;;;;;;25656555;23;20173;-70
2022/07/26 14:01:46;;;;;;;0.20;0.00;;;33.90;99.90;;;;;;25680037;23;20233;-71
2022/07/26 14:11:51;;;;;;;0.20;0.00;;;34.20;99.90;;;;;;25683032;23;20190;-73
2022/07/26 14:21:55;;;;;;;0.20;0.00;;;33.50;99.90;;;;;;25683705;23;20170;-70
2022/07/26 14:32:04;;;;;;;0.20;0.00;;;32.50;99.90;;;;;;25681226;23;20205;-72
2022/07/26 14:42:08;;;;;;;0.20;0.00;;;30.40;99.90;;;;;;25680372;23;20169;-72
2022/07/26 14:52:15;;;;;;;0.20;0.00;;;30.60;99.90;;;;;;25669156;23;20365;-72
2022/07/26 15:02:19;;;;;;;0.20;0.10;;;29.60;99.90;;;;;;25679100;23;20210;-73
2022/07/26 15:12:24;;;;;;;0.20;0.00;;;32.10;99.90;;;;;;25652440;23;20291;-72
2022/07/26 15:22:28;;;;;;;0.20;0.00;;;31.70;99.90;;;;;;25679158;23;20185;-70
2022/07/26 15:32:34;;;;;;;0.20;0.00;;;32.40;99.90;;;;;;25679635;23;20201;-71
2022/07/26 15:42:41;;;;;;;0.20;0.00;;;32.20;99.90;;;;;;25680982;23;20170;-71
2022/07/26 15:52:48;;;;;;;0.20;0.00;;;30.30;99.90;;;;;;25692921;23;20253;-72
2022/07/26 16:02:53;;;;;;;0.20;0.10;;;29.20;99.90;;;;;;25665350;23;20261;-72
2022/07/26 16:13:00;;;;;;;0.20;0.00;;;29.00;99.90;;;;;;25694981;23;20202;-72
2022/07/26 16:23:04;;;;;;;0.20;0.00;;;29.60;99.90;;;;;;25698150;23;20178;-73
2022/07/26 16:33:09;;;;;;;0.20;0.05;;;29.00;99.90;;;;;;25670499;23;20186;-71
2022/07/26 16:43:13;;;;;;;0.20;0.00;;;28.70;99.90;;;;;;25698346;23;20163;-71
2022/07/26 16:53:18;;;;;;;0.20;0.00;;;28.80;99.90;;;;;;25671199;23;20193;-71
2022/07/26 17:03:22;;;;;;;0.20;0.00;;;28.90;99.90;;;;;;25695608;23;20198;-71
2022/07/26 17:13:27;;;;;;;0.20;0.00;;;28.70;99.90;;;;;;25669974;23;20185;-70
2022/07/26 17:23:34;;;;;;;0.20;0.00;;;28.60;99.90;;;;;;25669032;23;20170;-71
2022/07/26 17:33:40;;;;;;;0.20;0.00;;;29.00;99.90;;;;;;25671661;23;20197;-71
2022/07/26 17:43:44;;;;;;;0.20;0.00;;;28.70;99.90;;;;;;25698052;23;20159;-71
2022/07/26 17:53:49;;;;;;;1.45;1.45;;;28.20;99.90;;;;;;25695117;23;20169;-70
2022/07/26 18:03:55;;;;;;;0.20;0.00;;;28.60;99.90;;;;;;25694759;23;20197;-71
2022/07/26 18:14:00;;;;;;;0.20;0.00;;;29.30;99.90;;;;;;25669433;23;20624;-71
2022/07/26 18:24:05;;;;;;;0.20;0.00;;;28.60;99.90;;;;;;25694005;23;20189;-71
2022/07/26 18:34:21;;;;;;;0.20;0.00;;;28.50;99.90;;;;;;25638699;23;20177;-74
2022/07/26 18:44:25;;;;;;;0.20;0.00;;;28.20;99.90;;;;;;25693455;23;20238;-73
2022/07/26 18:54:30;;;;;;;0.20;0.00;;;27.90;99.90;;;;;;25692525;23;20182;-72
2022/07/26 19:04:34;;;;;;;0.20;0.10;;;27.80;99.90;;;;;;25663535;23;20202;-72
2022/07/26 19:14:39;;;;;;;0.20;0.00;;;27.70;99.90;;;;;;25687283;23;20251;-73
2022/07/26 19:24:43;;;;;;;0.20;0.00;;;27.70;99.90;;;;;;25688061;23;20213;-73
2022/07/26 19:34:48;;;;;;;0.20;0.00;;;27.70;99.90;;;;;;25692024;23;20174;-73
2022/07/26 19:44:52;;;;;;;0.20;0.00;;;27.70;99.90;;;;;;25663419;23;20236;-72
2022/07/26 19:54:57;;;;;;;0.20;0.00;;;27.70;99.90;;;;;;25680809;23;20166;-73
2022/07/26 20:05:01;;;;;;;0.20;0.00;;;27.80;99.90;;;;;;25660652;23;20201;-73
2022/07/26 20:15:07;;;;;;;0.20;0.00;;;27.60;99.90;;;;;;25664934;23;20202;-73
2022/07/26 20:25:11;;;;;;;0.20;0.00;;;27.70;99.90;;;;;;25687479;23;20225;-71
2022/07/26 20:35:25;;;;;;;0.20;0.00;;;27.60;99.90;;;;;;25688066;23;20177;-72
2022/07/26 20:45:29;;;;;;;0.20;0.00;;;27.40;99.90;;;;;;25663412;23;20257;-72
2022/07/26 20:55:34;;;;;;;0.20;0.00;;;27.50;99.90;;;;;;25641823;23;20177;-72
2022/07/26 21:05:38;;;;;;;0.20;0.00;;;27.50;99.90;;;;;;25699641;23;20206;-73
2022/07/26 21:15:43;;;;;;;0.20;0.00;;;27.50;99.90;;;;;;25701154;23;20186;-73
2022/07/26 21:25:47;;;;;;;0.20;0.00;;;27.30;99.90;;;;;;25698112;23;20194;-72
2022/07/26 21:36:01;;;;;;;0.20;0.10;;;27.20;99.90;;;;;;25650097;23;20166;-73
2022/07/26 21:46:05;;;;;;;0.20;0.08;;;27.20;99.90;;;;;;25700579;23;20256;-73
2022/07/26 21:56:16;;;;;;;0.20;0.10;;;27.10;99.90;;;;;;25674033;23;20162;-73
2022/07/26 22:06:20;;;;;;;0.20;0.00;;;27.00;99.90;;;;;;25700025;23;20205;-73
2022/07/26 22:16:25;;;;;;;0.20;0.00;;;27.00;99.90;;;;;;25700836;23;20221;-73
2022/07/26 22:26:29;;;;;;;0.20;0.00;;;27.00;99.90;;;;;;25699167;23;20186;-72
2022/07/26 22:36:35;;;;;;;0.20;0.10;;;27.00;99.90;;;;;;25673585;23;20234;-73
2022/07/26 22:46:42;;;;;;;0.20;0.00;;;27.10;99.90;;;;;;25673517;23;20189;-73
2022/07/26 22:56:47;;;;;;;0.20;0.00;;;27.10;99.90;;;;;;25672795;23;20186;-73
2022/07/26 23:06:51;;;;;;;0.20;0.00;;;27.10;99.90;;;;;;25697720;23;20210;-73
2022/07/26 23:16:58;;;;;;;0.20;0.10;;;27.00;99.90;;;;;;25698183;23;20161;-72
2022/07/26 23:27:02;;;;;;;0.20;0.00;;;27.00;99.90;;;;;;25696907;23;20189;-72
2022/07/26 23:37:08;;;;;;;0.20;0.00;;;27.00;99.90;;;;;;25671410;23;20190;-72
2022/07/26 23:47:12;;;;;;;0.20;0.00;;;27.10;99.90;;;;;;25671350;23;20209;-73
2022/07/26 23:57:17;;;;;;;0.20;0.03;;;26.90;99.90;;;;;;25696820;23;20167;-72
